createdAt,value
2019-06-29T00:01:09.751Z,15.60
2019-06-29T00:03:40.729Z,15.50
2019-06-29T00:06:10.959Z,15.40
2019-06-29T00:08:41.208Z,15.50
2019-06-29T00:11:11.660Z,15.40
2019-06-29T00:13:42.501Z,15.30
2019-06-29T00:16:12.807Z,15.30
2019-06-29T00:18:44.409Z,15.30
2019-06-29T00:21:15.112Z,15.30
2019-06-29T00:23:45.621Z,15.20
2019-06-29T00:26:15.761Z,15.20
2019-06-29T00:28:46.057Z,15.20
2019-06-29T00:31:16.789Z,15.10
2019-06-29T00:33:49.697Z,15.10
2019-06-29T00:36:19.994Z,15.10
2019-06-29T00:38:50.281Z,15.00
2019-06-29T00:41:20.576Z,14.90
2019-06-29T00:43:50.677Z,14.80
2019-06-29T00:46:20.918Z,14.90
2019-06-29T00:48:51.560Z,14.90
2019-06-29T00:51:21.752Z,14.80
2019-06-29T00:53:52.678Z,14.90
2019-06-29T00:56:23.272Z,14.80
2019-06-29T00:58:53.836Z,14.70
2019-06-29T01:01:24.030Z,14.60
2019-06-29T01:03:54.825Z,14.50
2019-06-29T01:06:24.874Z,14.50
2019-06-29T01:08:55.125Z,14.50
2019-06-29T01:11:25.327Z,14.40
2019-06-29T01:13:56.296Z,14.40
2019-06-29T01:16:26.592Z,14.40
2019-06-29T01:18:56.753Z,14.50
2019-06-29T01:21:27.455Z,14.60
2019-06-29T01:23:57.706Z,14.60
2019-06-29T01:26:27.867Z,14.50
2019-06-29T01:28:58.356Z,14.40
2019-06-29T01:31:28.561Z,14.30
2019-06-29T01:33:58.901Z,14.30
2019-06-29T01:36:29.105Z,14.40
2019-06-29T01:38:59.702Z,14.50
2019-06-29T01:41:29.994Z,14.40
2019-06-29T01:44:00.375Z,14.40
2019-06-29T01:46:30.738Z,14.40
2019-06-29T01:49:01.516Z,14.30
2019-06-29T01:51:31.611Z,14.30
2019-06-29T01:54:02.339Z,14.30
2019-06-29T01:56:32.689Z,14.20
2019-06-29T01:59:02.854Z,14.20
2019-06-29T02:01:33.186Z,14.20
2019-06-29T02:04:03.752Z,14.10
2019-06-29T02:06:34.404Z,14.10
2019-06-29T02:09:06.841Z,14.10
2019-06-29T02:11:37.110Z,14.10
2019-06-29T02:14:07.375Z,14.00
2019-06-29T02:16:38.249Z,14.00
2019-06-29T02:19:08.487Z,14.00
2019-06-29T02:21:38.849Z,14.00
2019-06-29T02:24:10.634Z,14.00
2019-06-29T02:26:41.347Z,14.00
2019-06-29T02:29:11.518Z,14.00
2019-06-29T02:31:41.748Z,13.90
2019-06-29T02:34:11.992Z,13.90
2019-06-29T02:36:42.665Z,13.80
2019-06-29T02:39:13.119Z,13.70
2019-06-29T02:41:43.786Z,13.70
2019-06-29T02:44:13.989Z,13.60
2019-06-29T02:46:44.220Z,13.70
2019-06-29T02:49:14.606Z,13.60
2019-06-29T02:51:45.320Z,13.50
2019-06-29T02:54:16.404Z,13.40
2019-06-29T02:56:46.807Z,13.40
2019-06-29T02:59:17.080Z,13.40
2019-06-29T03:01:47.720Z,13.40
2019-06-29T03:04:17.941Z,13.30
2019-06-29T03:06:48.661Z,13.30
2019-06-29T03:09:19.144Z,13.30
2019-06-29T03:11:49.551Z,13.40
2019-06-29T03:14:19.761Z,13.40
2019-06-29T03:16:50.121Z,13.30
2019-06-29T03:19:20.319Z,13.20
2019-06-29T03:21:50.400Z,13.00
2019-06-29T03:24:21.269Z,12.90
2019-06-29T03:26:51.675Z,12.90
2019-06-29T03:29:21.706Z,13.00
2019-06-29T03:31:51.848Z,12.90
2019-06-29T03:34:22.275Z,12.90
2019-06-29T03:36:52.644Z,12.90
2019-06-29T03:39:23.330Z,12.90
2019-06-29T03:41:53.480Z,13.00
2019-06-29T03:44:23.600Z,13.00
2019-06-29T03:46:53.910Z,13.10
2019-06-29T03:49:24.517Z,13.00
2019-06-29T03:51:54.754Z,13.10
2019-06-29T03:54:25.525Z,13.00
2019-06-29T03:56:56.994Z,13.00
2019-06-29T03:59:28.046Z,13.00
2019-06-29T04:02:01.160Z,13.10
2019-06-29T04:04:40.691Z,13.10
2019-06-29T04:07:19.115Z,13.10
2019-06-29T04:10:09.577Z,13.10
2019-06-29T04:12:55.670Z,13.10
2019-06-29T04:15:31.636Z,13.20
2019-06-29T04:18:07.043Z,13.10
2019-06-29T04:21:04.544Z,13.20
2019-06-29T04:23:57.181Z,13.20
2019-06-29T04:26:32.509Z,13.30
2019-06-29T04:29:14.838Z,13.30
2019-06-29T04:31:58.695Z,13.40
2019-06-29T04:35:05.520Z,13.40
2019-06-29T04:37:48.820Z,13.50
2019-06-29T04:40:28.214Z,13.60
2019-06-29T04:43:00.778Z,13.80
2019-06-29T04:45:31.858Z,14.10
2019-06-29T04:48:02.056Z,14.50
2019-06-29T04:50:32.526Z,14.80
2019-06-29T04:53:03.162Z,15.10
2019-06-29T04:55:33.325Z,15.40
2019-06-29T04:58:04.392Z,15.60
2019-06-29T05:00:36.450Z,15.90
2019-06-29T05:03:06.705Z,16.10
2019-06-29T05:05:36.810Z,16.30
2019-06-29T05:08:07.362Z,16.60
2019-06-29T05:10:41.267Z,16.70
2019-06-29T05:13:11.861Z,16.90
2019-06-29T05:15:42.145Z,17.10
2019-06-29T05:18:12.346Z,17.20
2019-06-29T05:20:42.561Z,17.50
2019-06-29T05:23:12.756Z,17.70
2019-06-29T05:25:43.504Z,17.90
2019-06-29T05:28:13.830Z,18.20
2019-06-29T05:30:45.334Z,18.40
2019-06-29T05:33:15.751Z,18.50
2019-06-29T05:35:46.889Z,18.70
2019-06-29T05:38:17.441Z,18.80
2019-06-29T05:40:47.973Z,19.00
2019-06-29T05:43:18.246Z,19.00
2019-06-29T05:45:48.983Z,19.00
2019-06-29T05:48:19.140Z,19.00
2019-06-29T05:50:49.700Z,19.00
2019-06-29T05:53:20.103Z,19.10
2019-06-29T05:55:50.261Z,19.30
2019-06-29T05:58:20.656Z,19.40
2019-06-29T06:00:51.311Z,19.60
2019-06-29T06:03:21.527Z,19.70
2019-06-29T06:05:51.991Z,19.70
2019-06-29T06:08:23.412Z,19.80
2019-06-29T06:10:54.207Z,19.90
2019-06-29T06:13:24.802Z,20.00
2019-06-29T06:15:54.855Z,19.90
2019-06-29T06:18:25.038Z,20.10
2019-06-29T06:20:55.093Z,20.20
2019-06-29T06:23:25.401Z,20.30
2019-06-29T06:25:56.141Z,20.40
2019-06-29T06:28:26.396Z,20.50
2019-06-29T06:30:59.796Z,20.60
2019-06-29T06:33:28.652Z,20.70
2019-06-29T06:35:59.357Z,20.80
2019-06-29T06:38:29.519Z,21.00
2019-06-29T06:41:00.278Z,21.00
2019-06-29T06:43:30.545Z,21.10
2019-06-29T06:46:00.636Z,21.20
2019-06-29T06:48:31.046Z,21.40
2019-06-29T06:51:01.412Z,21.60
2019-06-29T06:53:32.107Z,21.70
2019-06-29T06:56:02.756Z,21.90
2019-06-29T06:58:33.354Z,21.90
2019-06-29T07:01:03.732Z,22.00
2019-06-29T07:03:34.010Z,22.00
2019-06-29T07:06:04.227Z,22.00
2019-06-29T07:08:34.777Z,22.20
2019-06-29T07:11:05.206Z,22.40
2019-06-29T07:13:35.531Z,22.60
2019-06-29T07:16:05.712Z,22.60
2019-06-29T07:18:35.995Z,22.70
2019-06-29T07:21:06.181Z,22.70
2019-06-29T07:23:36.893Z,22.80
2019-06-29T07:26:07.927Z,23.00
2019-06-29T07:28:38.046Z,23.10
2019-06-29T07:31:08.316Z,23.10
2019-06-29T07:33:39.102Z,23.10
2019-06-29T07:36:09.417Z,23.10
2019-06-29T07:38:40.177Z,23.10
2019-06-29T07:41:10.731Z,23.20
2019-06-29T07:43:40.824Z,23.40
2019-06-29T07:46:11.059Z,23.50
2019-06-29T07:48:41.863Z,23.60
2019-06-29T07:51:15.776Z,23.50
2019-06-29T07:53:49.009Z,23.50
2019-06-29T07:56:46.321Z,23.50
2019-06-29T07:59:16.640Z,23.50
2019-06-29T08:01:47.081Z,23.70
2019-06-29T08:04:18.246Z,23.70
2019-06-29T08:06:48.793Z,23.80
2019-06-29T08:09:19.424Z,23.80
2019-06-29T08:11:50.225Z,24.00
2019-06-29T08:14:22.818Z,24.30
2019-06-29T08:16:52.990Z,24.30
2019-06-29T08:19:23.683Z,24.40
2019-06-29T08:21:53.917Z,24.40
2019-06-29T08:24:24.448Z,24.40
2019-06-29T08:26:55.797Z,24.40
2019-06-29T08:29:27.019Z,24.50
2019-06-29T08:31:57.565Z,24.50
2019-06-29T08:34:29.821Z,24.50
2019-06-29T08:37:00.156Z,24.60
2019-06-29T08:39:31.181Z,24.70
2019-06-29T08:42:01.741Z,24.80
2019-06-29T08:44:32.447Z,24.90
2019-06-29T08:47:02.891Z,24.90
2019-06-29T08:49:33.147Z,25.00
2019-06-29T08:52:05.878Z,25.00
2019-06-29T08:54:35.917Z,25.00
2019-06-29T08:57:06.943Z,25.00
2019-06-29T08:59:37.471Z,25.10
2019-06-29T09:02:07.802Z,25.30
2019-06-29T09:04:38.804Z,25.40
2019-06-29T09:07:09.588Z,25.50
2019-06-29T09:09:40.102Z,25.50
2019-06-29T09:12:10.582Z,25.50
2019-06-29T09:14:40.892Z,25.60
2019-06-29T09:17:10.960Z,25.60
2019-06-29T09:19:42.012Z,25.60
2019-06-29T09:22:12.024Z,25.60
2019-06-29T09:24:42.224Z,25.60
2019-06-29T09:27:13.030Z,25.70
2019-06-29T09:29:43.544Z,25.90
2019-06-29T09:32:13.645Z,26.00
2019-06-29T09:34:44.184Z,26.00
2019-06-29T09:37:14.603Z,26.10
2019-06-29T09:39:44.723Z,26.20
2019-06-29T09:42:15.238Z,26.20
2019-06-29T09:44:45.882Z,26.20
2019-06-29T09:47:15.848Z,26.20
2019-06-29T09:49:46.422Z,26.40
2019-06-29T09:52:16.656Z,26.40
2019-06-29T09:54:47.499Z,26.50
2019-06-29T09:57:17.909Z,26.70
2019-06-29T09:59:48.536Z,26.70
2019-06-29T10:02:21.650Z,26.70
2019-06-29T10:04:51.854Z,26.80
2019-06-29T10:07:22.419Z,26.80
2019-06-29T10:09:53.008Z,27.00
2019-06-29T10:12:23.640Z,27.10
2019-06-29T10:14:55.826Z,27.10
2019-06-29T10:17:25.874Z,27.10
2019-06-29T10:19:56.340Z,27.20
2019-06-29T10:22:26.652Z,27.20
2019-06-29T10:24:57.048Z,27.20
2019-06-29T10:27:31.622Z,27.30
2019-06-29T10:30:02.616Z,27.40
2019-06-29T10:32:33.009Z,27.40
2019-06-29T10:35:03.965Z,27.40
2019-06-29T10:37:34.374Z,27.30
2019-06-29T10:40:05.965Z,27.30
2019-06-29T10:42:36.579Z,27.20
2019-06-29T10:45:07.821Z,27.30
2019-06-29T10:47:38.080Z,27.30
2019-06-29T10:50:08.329Z,27.40
2019-06-29T10:52:38.625Z,27.60
2019-06-29T10:55:08.985Z,27.80
2019-06-29T10:57:42.508Z,27.90
2019-06-29T11:00:17.000Z,27.90
2019-06-29T11:02:43.310Z,27.90
2019-06-29T11:05:13.477Z,28.10
2019-06-29T11:07:44.763Z,28.10
2019-06-29T11:10:16.534Z,28.10
2019-06-29T11:12:46.837Z,28.20
2019-06-29T11:15:17.015Z,28.20
2019-06-29T11:17:47.054Z,28.20
2019-06-29T11:20:17.569Z,28.30
2019-06-29T11:22:48.009Z,28.40
2019-06-29T11:25:18.481Z,28.50
2019-06-29T11:28:09.837Z,28.50
2019-06-29T11:30:31.470Z,28.50
2019-06-29T11:32:53.689Z,28.50
2019-06-29T11:35:25.250Z,28.70
2019-06-29T11:37:55.292Z,28.80
2019-06-29T11:40:25.423Z,28.80
2019-06-29T11:42:55.671Z,28.90
2019-06-29T11:45:26.338Z,29.00
2019-06-29T11:47:58.703Z,29.00
2019-06-29T11:50:28.983Z,29.10
2019-06-29T11:53:02.151Z,29.10
2019-06-29T11:55:33.877Z,29.20
2019-06-29T11:58:04.192Z,29.30
2019-06-29T12:00:46.633Z,29.30
2019-06-29T12:03:07.168Z,29.30
2019-06-29T12:05:38.509Z,29.30
2019-06-29T12:08:09.366Z,29.20
2019-06-29T12:10:42.043Z,29.30
2019-06-29T12:13:12.130Z,29.40
2019-06-29T12:15:44.597Z,29.50
2019-06-29T12:18:14.948Z,29.60
2019-06-29T12:20:45.368Z,29.50
2019-06-29T12:23:15.863Z,29.50
2019-06-29T12:25:46.467Z,29.50
2019-06-29T12:28:17.735Z,29.30
2019-06-29T12:31:02.457Z,29.30
2019-06-29T12:33:22.141Z,29.40
2019-06-29T12:35:53.586Z,29.60
2019-06-29T12:38:24.405Z,29.60
2019-06-29T12:40:54.917Z,29.70
2019-06-29T12:43:26.292Z,29.90
2019-06-29T12:45:56.702Z,30.10
2019-06-29T12:48:27.386Z,30.10
2019-06-29T12:50:57.533Z,30.10
2019-06-29T12:53:27.636Z,30.10
2019-06-29T12:55:57.637Z,30.20
2019-06-29T12:58:27.943Z,30.30
2019-06-29T13:00:58.561Z,30.40
2019-06-29T13:03:28.725Z,30.40
2019-06-29T13:05:58.745Z,30.40
2019-06-29T13:08:28.909Z,30.40
2019-06-29T13:10:59.516Z,30.40
2019-06-29T13:13:29.723Z,30.30
2019-06-29T13:16:00.283Z,30.30
2019-06-29T13:18:33.175Z,30.30
2019-06-29T13:21:03.321Z,30.30
2019-06-29T13:23:33.249Z,30.40
2019-06-29T13:26:04.925Z,30.40
2019-06-29T13:28:35.454Z,30.60
2019-06-29T13:31:05.860Z,30.70
2019-06-29T13:33:35.968Z,30.80
2019-06-29T13:36:06.679Z,30.90
2019-06-29T13:38:36.996Z,30.90
2019-06-29T13:41:07.614Z,31.00
2019-06-29T13:43:37.943Z,30.90
2019-06-29T13:46:09.002Z,30.90
2019-06-29T13:48:41.583Z,30.90
2019-06-29T13:51:12.089Z,31.10
2019-06-29T13:53:42.381Z,31.10
2019-06-29T13:56:12.961Z,31.20
2019-06-29T13:58:44.063Z,31.20
2019-06-29T14:01:14.154Z,31.10
2019-06-29T14:03:44.182Z,31.30
2019-06-29T14:06:14.208Z,31.40
2019-06-29T14:08:44.577Z,31.40
2019-06-29T14:11:14.545Z,31.40
2019-06-29T14:13:44.729Z,31.40
2019-06-29T14:16:14.708Z,31.40
2019-06-29T14:18:44.920Z,31.30
2019-06-29T14:21:15.078Z,31.30
2019-06-29T14:23:45.856Z,31.50
2019-06-29T14:26:15.894Z,31.60
2019-06-29T14:28:46.325Z,31.60
2019-06-29T14:31:16.665Z,31.70
2019-06-29T14:33:47.240Z,31.80
2019-06-29T14:36:17.478Z,31.80
2019-06-29T14:38:47.932Z,31.80
2019-06-29T14:41:18.241Z,31.90
2019-06-29T14:43:48.925Z,31.90
2019-06-29T14:46:19.074Z,32.00
2019-06-29T14:48:49.401Z,32.00
2019-06-29T14:51:19.601Z,32.10
2019-06-29T14:53:49.904Z,32.10
2019-06-29T14:56:20.349Z,32.10
2019-06-29T14:58:50.776Z,32.10
2019-06-29T15:01:22.633Z,32.20
2019-06-29T15:03:53.078Z,32.20
2019-06-29T15:06:23.447Z,32.30
2019-06-29T15:08:53.673Z,32.30
2019-06-29T15:11:23.904Z,32.30
2019-06-29T15:13:54.723Z,32.50
2019-06-29T15:16:25.697Z,32.50
2019-06-29T15:18:56.882Z,32.60
2019-06-29T15:21:27.321Z,32.70
2019-06-29T15:23:57.537Z,32.70
2019-06-29T15:26:27.797Z,32.80
2019-06-29T15:28:58.465Z,32.90
2019-06-29T15:31:29.122Z,32.90
2019-06-29T15:33:59.378Z,33.00
2019-06-29T15:36:31.363Z,33.00
2019-06-29T15:39:01.650Z,33.00
2019-06-29T15:41:33.801Z,33.10
2019-06-29T15:44:04.949Z,33.20
2019-06-29T15:46:35.597Z,33.30
2019-06-29T15:49:05.979Z,33.50
2019-06-29T15:51:36.192Z,33.30
2019-06-29T15:54:07.038Z,33.30
2019-06-29T15:56:37.543Z,33.20
2019-06-29T15:59:08.022Z,33.20
2019-06-29T16:01:42.407Z,33.10
2019-06-29T16:04:13.032Z,33.00
2019-06-29T16:06:46.667Z,33.00
2019-06-29T16:09:17.489Z,33.00
2019-06-29T16:12:00.175Z,33.00
2019-06-29T16:14:21.998Z,33.10
2019-06-29T16:16:52.211Z,33.10
2019-06-29T16:19:22.935Z,33.00
2019-06-29T16:21:53.413Z,33.00
2019-06-29T16:24:27.598Z,32.90
2019-06-29T16:26:56.765Z,32.90
2019-06-29T16:29:30.055Z,32.90
2019-06-29T16:32:00.123Z,32.90
2019-06-29T16:34:30.865Z,32.90
2019-06-29T16:37:05.060Z,32.90
2019-06-29T16:39:35.872Z,33.00
2019-06-29T16:42:06.815Z,32.90
2019-06-29T16:44:37.324Z,32.90
2019-06-29T16:47:09.864Z,32.80
2019-06-29T16:49:41.278Z,32.80
2019-06-29T16:52:11.619Z,32.80
2019-06-29T16:54:41.795Z,32.80
2019-06-29T16:57:12.196Z,32.80
2019-06-29T16:59:42.542Z,32.80
2019-06-29T17:02:13.606Z,32.70
2019-06-29T17:04:44.082Z,32.70
2019-06-29T17:07:14.444Z,32.70
2019-06-29T17:09:44.645Z,32.60
2019-06-29T17:12:15.018Z,32.50
2019-06-29T17:14:48.874Z,32.50
2019-06-29T17:17:19.438Z,32.50
2019-06-29T17:19:50.230Z,32.40
2019-06-29T17:22:20.653Z,32.40
2019-06-29T17:24:51.270Z,32.40
2019-06-29T17:27:21.925Z,32.30
2019-06-29T17:29:52.351Z,32.30
2019-06-29T17:32:22.939Z,32.20
2019-06-29T17:34:53.162Z,32.10
2019-06-29T17:37:26.252Z,32.10
2019-06-29T17:39:57.146Z,32.10
2019-06-29T17:42:27.871Z,32.00
2019-06-29T17:44:58.757Z,32.00
2019-06-29T17:47:29.129Z,31.90
2019-06-29T17:50:00.002Z,31.90
2019-06-29T17:52:33.500Z,31.80
2019-06-29T17:55:04.119Z,31.70
2019-06-29T17:57:36.959Z,31.70
2019-06-29T18:00:08.084Z,31.70
2019-06-29T18:02:38.254Z,31.60
2019-06-29T18:05:08.790Z,31.50
2019-06-29T18:07:39.139Z,31.40
2019-06-29T18:10:10.930Z,31.40
2019-06-29T18:12:41.590Z,31.30
2019-06-29T18:15:12.995Z,31.20
2019-06-29T18:17:43.306Z,31.10
2019-06-29T18:20:15.144Z,31.00
2019-06-29T18:22:46.061Z,30.90
2019-06-29T18:25:17.068Z,30.80
2019-06-29T18:27:47.482Z,30.70
2019-06-29T18:30:18.405Z,30.50
2019-06-29T18:32:49.358Z,30.40
2019-06-29T18:35:19.860Z,30.30
2019-06-29T18:37:50.308Z,30.20
2019-06-29T18:40:20.905Z,30.10
2019-06-29T18:42:52.015Z,30.00
2019-06-29T18:45:23.071Z,29.80
2019-06-29T18:47:53.545Z,29.80
2019-06-29T18:50:24.189Z,29.60
2019-06-29T18:52:54.642Z,29.60
2019-06-29T18:55:24.817Z,29.50
2019-06-29T18:57:56.075Z,29.30
2019-06-29T19:00:26.409Z,29.30
2019-06-29T19:02:56.861Z,29.10
2019-06-29T19:05:27.037Z,29.00
2019-06-29T19:07:57.563Z,28.90
2019-06-29T19:10:27.902Z,28.80
2019-06-29T19:12:58.493Z,28.70
2019-06-29T19:15:29.127Z,28.60
2019-06-29T19:17:59.539Z,28.50
2019-06-29T19:20:31.133Z,28.40
2019-06-29T19:23:01.374Z,28.30
2019-06-29T19:25:31.879Z,28.20
2019-06-29T19:28:02.665Z,28.10
2019-06-29T19:30:32.879Z,27.90
2019-06-29T19:33:03.611Z,27.80
2019-06-29T19:35:34.219Z,27.70
2019-06-29T19:38:06.210Z,27.60
2019-06-29T19:40:36.949Z,27.60
2019-06-29T19:43:07.509Z,27.40
2019-06-29T19:45:38.146Z,27.40
2019-06-29T19:48:11.917Z,27.20
2019-06-29T19:50:40.548Z,27.10
2019-06-29T19:53:11.044Z,27.00
2019-06-29T19:55:41.509Z,26.80
2019-06-29T19:58:12.186Z,26.70
2019-06-29T20:00:42.807Z,26.60
2019-06-29T20:03:13.252Z,26.50
2019-06-29T20:05:44.737Z,26.30
2019-06-29T20:08:15.111Z,26.30
2019-06-29T20:10:48.102Z,26.10
2019-06-29T20:13:18.934Z,26.00
2019-06-29T20:15:49.209Z,25.90
2019-06-29T20:18:19.602Z,25.80
2019-06-29T20:20:50.393Z,25.60
2019-06-29T20:23:20.643Z,25.50
2019-06-29T20:25:51.195Z,25.40
2019-06-29T20:28:22.218Z,25.30
2019-06-29T20:30:52.777Z,25.20
2019-06-29T20:33:23.288Z,25.00
2019-06-29T20:35:54.654Z,25.00
2019-06-29T20:38:25.485Z,24.90
2019-06-29T20:40:56.157Z,24.70
2019-06-29T20:43:26.909Z,24.60
2019-06-29T20:45:58.281Z,24.60
2019-06-29T20:48:29.205Z,24.50
2019-06-29T20:50:59.948Z,24.40
2019-06-29T20:53:30.616Z,24.30
2019-06-29T20:56:01.331Z,24.10
2019-06-29T20:58:32.392Z,24.00
2019-06-29T21:01:03.138Z,23.80
2019-06-29T21:03:33.647Z,23.60
2019-06-29T21:06:04.988Z,23.50
2019-06-29T21:08:35.352Z,23.50
2019-06-29T21:11:06.158Z,23.30
2019-06-29T21:13:36.607Z,23.30
2019-06-29T21:16:10.470Z,23.10
2019-06-29T21:18:41.081Z,23.00
2019-06-29T21:21:11.708Z,23.00
2019-06-29T21:23:43.624Z,22.90
2019-06-29T21:26:14.759Z,22.80
2019-06-29T21:28:45.151Z,22.80
2019-06-29T21:31:15.505Z,22.90
2019-06-29T21:33:46.435Z,22.90
2019-06-29T21:36:17.330Z,22.80
2019-06-29T21:38:47.560Z,22.70
2019-06-29T21:41:17.756Z,22.60
2019-06-29T21:43:48.534Z,22.50
2019-06-29T21:46:19.817Z,22.40
2019-06-29T21:48:51.219Z,22.30
2019-06-29T21:51:21.571Z,22.30
2019-06-29T21:53:51.891Z,22.30
2019-06-29T21:56:22.288Z,22.20
2019-06-29T21:58:56.046Z,22.10
2019-06-29T22:01:26.602Z,22.10
2019-06-29T22:03:57.230Z,22.00
2019-06-29T22:06:28.077Z,21.90
2019-06-29T22:09:01.633Z,21.80
2019-06-29T22:11:30.603Z,21.80
2019-06-29T22:14:01.504Z,21.70
2019-06-29T22:16:31.782Z,21.60
2019-06-29T22:19:02.254Z,21.50
2019-06-29T22:21:33.541Z,21.40
2019-06-29T22:24:04.283Z,21.40
2019-06-29T22:26:34.657Z,21.30
2019-06-29T22:29:04.945Z,21.30
2019-06-29T22:31:35.126Z,21.20
2019-06-29T22:34:05.894Z,21.10
2019-06-29T22:36:36.139Z,21.00
2019-06-29T22:39:07.044Z,20.90
2019-06-29T22:41:37.177Z,20.90
2019-06-29T22:44:07.288Z,20.90
2019-06-29T22:46:37.890Z,20.80
2019-06-29T22:49:08.609Z,20.80
2019-06-29T22:51:39.272Z,20.80
2019-06-29T22:54:09.867Z,20.70
2019-06-29T22:56:40.232Z,20.70
2019-06-29T22:59:10.659Z,20.60
2019-06-29T23:01:41.010Z,20.50
2019-06-29T23:04:11.956Z,20.40
2019-06-29T23:06:42.083Z,20.40
2019-06-29T23:09:12.640Z,20.30
2019-06-29T23:11:42.928Z,20.30
2019-06-29T23:14:13.840Z,20.30
2019-06-29T23:16:44.361Z,20.20
2019-06-29T23:19:14.691Z,20.20
2019-06-29T23:21:45.031Z,20.10
2019-06-29T23:24:15.650Z,20.00
2019-06-29T23:26:45.938Z,20.00
2019-06-29T23:29:16.194Z,20.00
2019-06-29T23:31:46.721Z,19.90
2019-06-29T23:34:17.101Z,19.90
2019-06-29T23:36:47.985Z,19.80
2019-06-29T23:39:18.471Z,19.80
2019-06-29T23:41:48.771Z,19.70
2019-06-29T23:44:18.972Z,19.70
2019-06-29T23:46:49.691Z,19.70
2019-06-29T23:49:19.935Z,19.60
2019-06-29T23:51:50.131Z,19.60
2019-06-29T23:54:20.846Z,19.60
2019-06-29T23:56:51.545Z,19.60
2019-06-29T23:59:22.391Z,19.50
